Time;durP1;ratioP1;P1;durP2;ratioP2;P2;SDS_P1;SDS_P2;PMS_P1;PMS_P2;Temp;Humidity;BMP_temperature;BMP_pressure;BME280_temperature;BME280_humidity;BME280_pressure;Samples;Min_cycle;Max_cycle;Signal;HPM_P1;HPM_P2
2022/11/07 00:01:30;;;;;;;32.15;18.90;;;;;;;;;;6213029;23;20005;-79
2022/11/07 00:03:59;;;;;;;40.80;19.80;;;;;;;;;;6213204;23;20001;-79
2022/11/07 00:06:27;;;;;;;37.67;19.67;;;;;;;;;;6186695;23;20009;-80
2022/11/07 00:08:54;;;;;;;46.60;19.45;;;;;;;;;;6213292;23;20011;-79
2022/11/07 00:11:19;;;;;;;39.78;18.23;;;;;;;;;;6186823;23;20005;-78
2022/11/07 00:13:45;;;;;;;46.35;19.88;;;;;;;;;;6161559;23;20000;-79
2022/11/07 00:16:10;;;;;;;37.00;19.00;;;;;;;;;;6186734;23;20005;-79
2022/11/07 00:18:36;;;;;;;45.20;20.13;;;;;;;;;;6211663;23;20440;-78
2022/11/07 00:21:06;;;;;;;41.22;19.17;;;;;;;;;;6187330;23;20060;-80
2022/11/07 00:23:32;;;;;;;;;;;;;;;;;;6162144;23;20356;-79
2022/11/07 00:26:05;;;;;;;32.75;18.60;;;;;;;;;;6186609;23;19908;-79
2022/11/07 00:28:34;;;;;;;40.00;19.15;;;;;;;;;;6212894;23;20000;-79
2022/11/07 00:30:59;;;;;;;38.90;18.00;;;;;;;;;;6212041;23;20009;-78
2022/11/07 00:33:24;;;;;;;35.38;17.42;;;;;;;;;;6162057;23;20016;-79
2022/11/07 00:35:50;;;;;;;44.80;18.30;;;;;;;;;;6213190;23;20005;-79
2022/11/07 00:38:15;;;;;;;42.53;18.13;;;;;;;;;;6186781;23;20001;-79
2022/11/07 00:40:41;;;;;;;38.80;18.52;;;;;;;;;;6187067;23;20571;-78
2022/11/07 00:43:18;;;;;;;41.65;17.83;;;;;;;;;;6163948;23;20079;-80
2022/11/07 00:45:44;;;;;;;29.80;17.08;;;;;;;;;;6215654;23;20011;-79
2022/11/07 00:48:09;;;;;;;31.10;17.20;;;;;;;;;;6215178;23;20031;-79
2022/11/07 00:50:35;;;;;;;34.60;17.95;;;;;;;;;;6217108;23;20001;-79
2022/11/07 00:53:00;;;;;;;35.53;18.52;;;;;;;;;;6218104;23;20011;-79
2022/11/07 00:55:26;;;;;;;33.17;17.60;;;;;;;;;;6224228;22;20087;-78
2022/11/07 00:57:51;;;;;;;31.63;17.90;;;;;;;;;;6244630;22;20064;-77
2022/11/07 01:00:17;;;;;;;42.15;18.40;;;;;;;;;;6244981;23;20071;-77
2022/11/07 01:02:42;;;;;;;45.67;18.88;;;;;;;;;;6243553;23;20368;-77
2022/11/07 01:05:11;;;;;;;37.53;18.27;;;;;;;;;;6245206;23;20075;-78
2022/11/07 01:07:38;;;;;;;39.00;19.55;;;;;;;;;;6245378;22;20083;-77
2022/11/07 01:10:04;;;;;;;38.75;19.08;;;;;;;;;;6245132;22;20004;-78
2022/11/07 01:12:32;;;;;;;38.22;19.55;;;;;;;;;;6244736;22;20059;-77
2022/11/07 01:14:58;;;;;;;35.88;17.80;;;;;;;;;;6245130;22;20016;-77
2022/11/07 01:17:23;;;;;;;36.85;17.27;;;;;;;;;;6245186;22;20000;-77
2022/11/07 01:19:49;;;;;;;39.58;17.77;;;;;;;;;;6243550;23;20431;-77
2022/11/07 01:22:14;;;;;;;33.42;18.48;;;;;;;;;;6245249;23;20060;-77
2022/11/07 01:24:40;;;;;;;33.72;17.80;;;;;;;;;;6243669;23;20007;-78
2022/11/07 01:27:05;;;;;;;47.40;18.42;;;;;;;;;;6244619;23;20007;-77
2022/11/07 01:29:31;;;;;;;35.75;17.35;;;;;;;;;;6243529;23;20008;-77
2022/11/07 01:31:56;;;;;;;40.42;16.98;;;;;;;;;;6244796;23;20007;-77
2022/11/07 01:34:22;;;;;;;39.42;17.88;;;;;;;;;;6217978;23;20007;-77
2022/11/07 01:36:47;;;;;;;35.78;17.20;;;;;;;;;;6243132;23;20011;-78
2022/11/07 01:39:13;;;;;;;39.90;16.60;;;;;;;;;;6193428;23;20008;-77
2022/11/07 01:41:39;;;;;;;28.50;16.45;;;;;;;;;;6244874;23;20026;-77
2022/11/07 01:44:07;;;;;;;28.85;15.00;;;;;;;;;;6243483;23;20431;-77
2022/11/07 01:46:37;;;;;;;30.08;15.68;;;;;;;;;;6245097;23;20053;-77
2022/11/07 01:49:16;;;;;;;33.85;15.95;;;;;;;;;;6245183;22;20004;-77
2022/11/07 01:51:50;;;;;;;29.77;14.85;;;;;;;;;;6244774;22;20004;-77
2022/11/07 01:54:20;;;;;;;34.03;14.38;;;;;;;;;;6219223;23;20040;-76
2022/11/07 01:56:46;;;;;;;32.03;14.93;;;;;;;;;;6213174;23;20039;-76
2022/11/07 01:59:14;;;;;;;29.85;13.77;;;;;;;;;;6186898;23;20004;-77
2022/11/07 02:01:40;;;;;;;29.77;13.05;;;;;;;;;;6188142;23;20023;-77
2022/11/07 02:04:05;;;;;;;29.77;12.73;;;;;;;;;;6187900;23;20490;-78
2022/11/07 02:06:36;;;;;;;38.58;13.55;;;;;;;;;;6214034;23;20000;-76
2022/11/07 02:09:01;;;;;;;29.20;12.82;;;;;;;;;;6187548;23;20011;-76
2022/11/07 02:11:27;;;;;;;27.92;12.57;;;;;;;;;;6188471;23;20028;-76
2022/11/07 02:13:52;;;;;;;26.05;11.05;;;;;;;;;;6187273;23;20012;-77
2022/11/07 02:16:28;;;;;;;26.00;11.75;;;;;;;;;;6187335;23;20281;-77
2022/11/07 02:18:54;;;;;;;27.50;11.40;;;;;;;;;;6166929;23;20012;-78
2022/11/07 02:21:34;;;;;;;28.95;11.23;;;;;;;;;;6187992;23;20328;-76
2022/11/07 02:24:06;;;;;;;24.08;11.15;;;;;;;;;;6163540;23;20335;-77
2022/11/07 02:26:32;;;;;;;25.67;10.45;;;;;;;;;;6163443;23;20005;-78
2022/11/07 02:28:58;;;;;;;21.75;10.20;;;;;;;;;;6163085;23;20005;-77
2022/11/07 02:31:24;;;;;;;25.27;10.18;;;;;;;;;;6138569;23;20014;-76
2022/11/07 02:33:49;;;;;;;23.73;9.75;;;;;;;;;;6213858;23;20004;-78
2022/11/07 02:36:17;;;;;;;28.60;9.95;;;;;;;;;;6162752;23;20035;-77
2022/11/07 02:38:42;;;;;;;24.27;9.93;;;;;;;;;;6162183;23;20035;-78
2022/11/07 02:41:15;;;;;;;20.27;9.32;;;;;;;;;;6187303;23;20072;-77
2022/11/07 02:43:43;;;;;;;18.75;9.50;;;;;;;;;;6188186;23;20420;-76
2022/11/07 02:46:09;;;;;;;23.80;10.00;;;;;;;;;;6187124;23;20365;-78
2022/11/07 02:48:47;;;;;;;19.63;9.27;;;;;;;;;;6162644;23;20058;-77
2022/11/07 02:51:13;;;;;;;23.77;9.65;;;;;;;;;;6163971;23;20375;-79
2022/11/07 02:53:39;;;;;;;23.08;10.52;;;;;;;;;;6138059;23;20004;-76
2022/11/07 02:56:05;;;;;;;21.70;9.70;;;;;;;;;;6234794;23;20008;-77
2022/11/07 02:58:30;;;;;;;25.40;9.25;;;;;;;;;;6244319;22;20340;-77
2022/11/07 03:01:05;;;;;;;22.60;9.95;;;;;;;;;;6243641;22;20004;-78
2022/11/07 03:03:34;;;;;;;26.40;9.75;;;;;;;;;;6244599;22;20004;-78
2022/11/07 03:06:00;;;;;;;20.15;9.85;;;;;;;;;;6242231;23;20416;-78
2022/11/07 03:08:26;;;;;;;24.33;9.38;;;;;;;;;;6243959;22;20003;-75
2022/11/07 03:10:51;;;;;;;21.13;9.57;;;;;;;;;;6244262;23;20062;-78
2022/11/07 03:13:17;;;;;;;24.98;9.88;;;;;;;;;;6243086;23;20000;-76
2022/11/07 03:15:42;;;;;;;19.73;10.00;;;;;;;;;;6243491;23;20443;-77
2022/11/07 03:18:07;;;;;;;21.65;10.13;;;;;;;;;;6243891;23;20003;-77
2022/11/07 03:20:33;;;;;;;28.92;10.73;;;;;;;;;;6242264;23;20082;-77
2022/11/07 03:22:58;;;;;;;20.45;9.70;;;;;;;;;;6242589;23;19996;-76
2022/11/07 03:25:24;;;;;;;19.80;10.38;;;;;;;;;;6242295;23;20087;-77
2022/11/07 03:27:49;;;;;;;22.90;9.45;;;;;;;;;;6243049;23;20019;-76
2022/11/07 03:30:15;;;;;;;19.65;9.48;;;;;;;;;;6192252;23;20597;-78
2022/11/07 03:32:41;;;;;;;19.02;9.80;;;;;;;;;;6217630;23;20392;-79
2022/11/07 03:35:07;;;;;;;18.05;9.40;;;;;;;;;;6217781;23;20439;-77
2022/11/07 03:37:32;;;;;;;22.00;9.60;;;;;;;;;;6242490;23;20015;-78
2022/11/07 03:39:58;;;;;;;23.33;9.93;;;;;;;;;;6242780;23;20000;-78
2022/11/07 03:42:23;;;;;;;24.90;10.55;;;;;;;;;;6244050;23;20004;-77
2022/11/07 03:44:49;;;;;;;30.98;9.55;;;;;;;;;;6243243;23;20000;-78
2022/11/07 03:47:14;;;;;;;23.17;9.70;;;;;;;;;;6243498;23;20011;-77
2022/11/07 03:49:40;;;;;;;28.63;10.02;;;;;;;;;;6242866;23;20102;-75
2022/11/07 03:52:05;;;;;;;19.65;8.98;;;;;;;;;;6243807;22;20366;-76
2022/11/07 03:54:31;;;;;;;17.92;9.77;;;;;;;;;;6243638;23;20004;-78
2022/11/07 03:56:56;;;;;;;22.38;9.18;;;;;;;;;;6243393;23;20077;-77
2022/11/07 03:59:22;;;;;;;28.17;9.70;;;;;;;;;;6243596;23;20410;-78
2022/11/07 04:01:47;;;;;;;22.83;9.35;;;;;;;;;;6216007;23;20008;-79
2022/11/07 04:04:13;;;;;;;22.10;10.02;;;;;;;;;;6242282;23;20545;-76
2022/11/07 04:06:38;;;;;;;25.05;9.77;;;;;;;;;;6241907;23;20528;-77
2022/11/07 04:09:04;;;;;;;23.75;9.80;;;;;;;;;;6244157;23;20004;-78
2022/11/07 04:19:41;;;;;;;22.65;12.25;;;;;;;;;;6245167;23;20011;-78
2022/11/07 04:22:07;;;;;;;26.83;14.18;;;;;;;;;;6244422;23;20001;-77
2022/11/07 04:24:32;;;;;;;23.45;12.30;;;;;;;;;;6245935;23;20004;-77
2022/11/07 04:29:42;;;;;;;25.10;12.32;;;;;;;;;;6245661;23;20081;-77
2022/11/07 04:32:07;;;;;;;22.88;10.05;;;;;;;;;;6243867;23;20004;-77
2022/11/07 04:34:33;;;;;;;33.28;11.02;;;;;;;;;;6243815;23;20678;-77
2022/11/07 04:37:07;;;;;;;27.88;10.52;;;;;;;;;;6218333;23;20000;-77
2022/11/07 04:39:32;;;;;;;19.77;10.45;;;;;;;;;;6219288;23;20051;-77
2022/11/07 04:41:58;;;;;;;21.75;9.90;;;;;;;;;;6243792;23;20008;-77
2022/11/07 04:44:23;;;;;;;28.27;9.95;;;;;;;;;;6245794;23;20028;-79
2022/11/07 04:46:54;;;;;;;22.45;8.70;;;;;;;;;;6245064;23;20333;-77
2022/11/07 04:49:19;;;;;;;24.77;9.98;;;;;;;;;;6219490;23;20012;-77
2022/11/07 04:51:45;;;;;;;22.42;9.40;;;;;;;;;;6245734;23;20024;-76
2022/11/07 04:54:14;;;;;;;17.70;8.80;;;;;;;;;;6245553;23;20004;-77
2022/11/07 04:56:39;;;;;;;23.73;8.95;;;;;;;;;;6245164;23;20070;-77
2022/11/07 04:59:05;;;;;;;17.90;8.25;;;;;;;;;;6245310;23;20437;-77
2022/11/07 05:01:30;;;;;;;25.63;8.98;;;;;;;;;;6218754;23;20000;-76
2022/11/07 05:03:56;;;;;;;21.52;8.18;;;;;;;;;;6245248;23;20004;-76
2022/11/07 05:06:22;;;;;;;20.10;8.57;;;;;;;;;;6245151;23;20071;-76
2022/11/07 05:08:47;;;;;;;22.17;8.73;;;;;;;;;;6245554;22;20096;-79
2022/11/07 05:11:13;;;;;;;20.80;8.68;;;;;;;;;;6243909;23;20482;-82
2022/11/07 05:13:48;;;;;;;24.88;9.07;;;;;;;;;;6243562;23;20513;-83
2022/11/07 05:16:15;;;;;;;19.67;8.63;;;;;;;;;;6242808;23;20039;-83
2022/11/07 05:18:41;;;;;;;20.00;8.55;;;;;;;;;;6218547;23;20335;-80
2022/11/07 05:21:07;;;;;;;21.30;8.38;;;;;;;;;;6243492;23;20088;-80
2022/11/07 05:23:32;;;;;;;19.17;8.13;;;;;;;;;;6245520;22;20000;-80
2022/11/07 05:25:58;;;;;;;21.23;8.35;;;;;;;;;;6245237;23;20027;-80
2022/11/07 05:28:25;;;;;;;19.27;7.80;;;;;;;;;;6244917;23;20000;-80
2022/11/07 05:30:50;;;;;;;24.80;7.75;;;;;;;;;;6244001;23;20436;-81
2022/11/07 05:33:16;;;;;;;20.20;7.93;;;;;;;;;;6243903;23;20007;-82
2022/11/07 05:35:42;;;;;;;21.85;9.40;;;;;;;;;;6245636;22;20474;-80
2022/11/07 05:38:08;;;;;;;15.30;8.10;;;;;;;;;;6242725;23;20008;-80
2022/11/07 05:40:34;;;;;;;27.70;9.48;;;;;;;;;;6243284;22;20354;-81
2022/11/07 05:43:08;;;;;;;25.67;10.93;;;;;;;;;;6240830;23;20004;-80
2022/11/07 05:45:37;;;;;;;20.95;8.80;;;;;;;;;;6215584;23;20000;-82
2022/11/07 05:48:04;;;;;;;17.17;8.00;;;;;;;;;;6240505;22;20290;-81
2022/11/07 05:50:30;;;;;;;26.25;9.68;;;;;;;;;;6239661;22;20000;-81
2022/11/07 05:52:56;;;;;;;13.93;7.90;;;;;;;;;;6243502;23;20050;-80
2022/11/07 05:55:21;;;;;;;23.20;7.68;;;;;;;;;;6241097;23;20071;-81
2022/11/07 05:57:47;;;;;;;19.42;7.65;;;;;;;;;;6243071;23;20077;-79
2022/11/07 06:00:30;;;;;;;23.42;7.43;;;;;;;;;;6237912;23;20000;-79
2022/11/07 06:03:01;;;;;;;24.50;7.50;;;;;;;;;;6244332;22;20463;-81
2022/11/07 06:05:27;;;;;;;14.18;7.25;;;;;;;;;;6245046;22;20000;-81
2022/11/07 06:07:53;;;;;;;20.08;7.38;;;;;;;;;;6271115;22;20416;-81
2022/11/07 06:10:18;;;;;;;14.95;6.90;;;;;;;;;;6250315;23;19996;-80
2022/11/07 06:12:47;;;;;;;24.95;7.82;;;;;;;;;;6259231;23;20000;-82
2022/11/07 06:15:13;;;;;;;19.48;7.57;;;;;;;;;;6257434;22;20000;-81
2022/11/07 06:17:38;;;;;;;19.60;8.15;;;;;;;;;;6255247;22;20004;-78
2022/11/07 06:20:04;;;;;;;21.95;7.43;;;;;;;;;;6260388;23;20062;-80
2022/11/07 06:22:33;;;;;;;16.05;7.20;;;;;;;;;;6241740;22;20394;-80
2022/11/07 06:24:58;;;;;;;14.77;6.72;;;;;;;;;;6243171;23;20000;-81
2022/11/07 06:27:24;;;;;;;16.25;7.00;;;;;;;;;;6242353;23;20000;-80
2022/11/07 06:29:49;;;;;;;20.05;6.82;;;;;;;;;;6241724;23;20118;-80
2022/11/07 06:32:15;;;;;;;16.45;6.35;;;;;;;;;;6245670;23;20030;-84
2022/11/07 06:34:40;;;;;;;20.08;6.43;;;;;;;;;;6244417;23;20400;-79
2022/11/07 06:37:06;;;;;;;19.08;6.22;;;;;;;;;;6243638;23;20045;-81
2022/11/07 06:39:32;;;;;;;14.15;6.28;;;;;;;;;;6242621;23;20038;-81
2022/11/07 06:41:57;;;;;;;22.75;7.00;;;;;;;;;;6245563;22;20004;-81
2022/11/07 06:44:23;;;;;;;18.88;6.35;;;;;;;;;;6245652;23;20030;-79
2022/11/07 06:46:57;;;;;;;13.13;5.97;;;;;;;;;;6242964;23;20004;-80
2022/11/07 06:49:23;;;;;;;18.33;6.55;;;;;;;;;;6239643;23;19996;-80
2022/11/07 06:51:48;;;;;;;16.42;6.97;;;;;;;;;;6243460;23;20000;-78
2022/11/07 06:54:14;;;;;;;18.15;7.15;;;;;;;;;;6242798;23;20004;-78
2022/11/07 06:56:39;;;;;;;20.42;6.72;;;;;;;;;;6242909;23;20451;-81
2022/11/07 06:59:13;;;;;;;20.33;6.55;;;;;;;;;;6245854;23;20035;-81
2022/11/07 07:01:38;;;;;;;14.05;6.22;;;;;;;;;;6248428;22;20031;-82
2022/11/07 07:04:12;;;;;;;20.00;6.53;;;;;;;;;;6246611;23;20008;-82
2022/11/07 07:06:38;;;;;;;17.42;7.00;;;;;;;;;;6215112;23;19996;-83
2022/11/07 07:09:05;;;;;;;22.42;6.53;;;;;;;;;;6214614;23;20454;-81
2022/11/07 07:11:31;;;;;;;14.30;6.30;;;;;;;;;;6243249;22;20075;-82
2022/11/07 07:13:59;;;;;;;18.33;6.22;;;;;;;;;;6240951;23;20023;-81
2022/11/07 07:16:25;;;;;;;21.55;7.30;;;;;;;;;;6244686;23;20010;-80
2022/11/07 07:18:50;;;;;;;23.40;6.60;;;;;;;;;;6247613;23;20484;-81
2022/11/07 07:21:16;;;;;;;21.77;6.70;;;;;;;;;;6247210;23;20007;-80
2022/11/07 07:23:41;;;;;;;16.38;7.13;;;;;;;;;;6250515;22;20035;-82
2022/11/07 07:26:10;;;;;;;19.85;6.80;;;;;;;;;;6225918;23;20420;-81
2022/11/07 07:28:36;;;;;;;18.67;6.55;;;;;;;;;;6243256;23;20008;-81
2022/11/07 07:31:13;;;;;;;17.73;6.55;;;;;;;;;;6244968;23;20034;-82
2022/11/07 07:33:40;;;;;;;19.08;7.05;;;;;;;;;;6243244;23;20004;-82
2022/11/07 07:36:06;;;;;;;18.52;6.57;;;;;;;;;;6242707;23;20000;-82
2022/11/07 07:38:31;;;;;;;22.15;6.75;;;;;;;;;;6245376;22;20008;-83
2022/11/07 07:40:58;;;;;;;18.77;6.63;;;;;;;;;;6247357;23;20000;-84
2022/11/07 07:43:24;;;;;;;18.65;6.18;;;;;;;;;;6245082;23;20062;-81
2022/11/07 07:46:10;;;;;;;19.27;6.80;;;;;;;;;;6245180;23;20007;-82
2022/11/07 07:48:38;;;;;;;21.95;6.68;;;;;;;;;;6242503;23;20011;-81
2022/11/07 07:51:04;;;;;;;14.93;6.20;;;;;;;;;;6241869;23;20016;-82
2022/11/07 07:53:31;;;;;;;19.60;6.43;;;;;;;;;;6235454;22;20093;-78
2022/11/07 07:55:57;;;;;;;19.95;6.50;;;;;;;;;;6246860;22;20008;-81
2022/11/07 07:58:24;;;;;;;17.35;6.63;;;;;;;;;;6240634;23;20000;-79
2022/11/07 08:01:00;;;;;;;19.13;6.72;;;;;;;;;;6240913;23;20004;-80
2022/11/07 08:03:26;;;;;;;17.17;6.47;;;;;;;;;;6244639;22;20047;-80
2022/11/07 08:05:58;;;;;;;24.00;6.75;;;;;;;;;;6244462;23;20016;-81
2022/11/07 08:08:24;;;;;;;20.95;6.82;;;;;;;;;;6245042;22;20010;-81
2022/11/07 08:10:53;;;;;;;19.08;6.15;;;;;;;;;;6245602;23;20064;-81
2022/11/07 08:13:23;;;;;;;23.50;6.70;;;;;;;;;;6242668;23;20440;-82
2022/11/07 08:15:49;;;;;;;20.35;6.03;;;;;;;;;;6247051;23;20008;-80
2022/11/07 08:18:16;;;;;;;14.00;6.50;;;;;;;;;;6256575;22;20000;-80
2022/11/07 08:20:42;;;;;;;22.40;6.50;;;;;;;;;;6223356;23;20008;-81
2022/11/07 08:23:09;;;;;;;21.35;6.32;;;;;;;;;;6245623;23;20038;-82
2022/11/07 08:25:35;;;;;;;23.38;7.00;;;;;;;;;;6248068;22;20367;-79
2022/11/07 08:28:00;;;;;;;10.75;6.07;;;;;;;;;;6219390;23;20157;-82
2022/11/07 08:30:27;;;;;;;17.40;6.40;;;;;;;;;;6247829;22;20067;-82
2022/11/07 08:32:52;;;;;;;18.17;6.70;;;;;;;;;;6215412;23;20083;-80
2022/11/07 08:35:18;;;;;;;25.35;7.13;;;;;;;;;;6240124;22;20623;-82
2022/11/07 08:37:44;;;;;;;15.90;6.43;;;;;;;;;;6245627;23;20080;-80
2022/11/07 08:40:10;;;;;;;17.73;6.88;;;;;;;;;;6240124;23;20007;-79
2022/11/07 08:42:40;;;;;;;17.75;6.50;;;;;;;;;;6240076;23;20014;-77
2022/11/07 08:45:31;;;;;;;27.02;6.65;;;;;;;;;;6235072;23;20134;-78
2022/11/07 08:48:02;;;;;;;19.85;6.72;;;;;;;;;;6234313;22;20004;-79
2022/11/07 08:50:27;;;;;;;16.17;6.95;;;;;;;;;;6208192;23;20403;-80
2022/11/07 08:52:54;;;;;;;25.75;6.85;;;;;;;;;;6233317;23;20280;-79
2022/11/07 08:55:31;;;;;;;22.40;7.32;;;;;;;;;;6232243;23;20158;-77
2022/11/07 08:58:01;;;;;;;17.00;7.03;;;;;;;;;;6237934;23;20491;-76
2022/11/07 09:00:26;;;;;;;19.27;6.30;;;;;;;;;;6211631;23;20015;-77
2022/11/07 09:02:52;;;;;;;21.17;7.10;;;;;;;;;;6238846;22;20079;-78
2022/11/07 09:05:17;;;;;;;12.40;6.43;;;;;;;;;;6237794;22;20046;-77
2022/11/07 09:07:43;;;;;;;19.40;7.18;;;;;;;;;;6242315;23;20000;-79
2022/11/07 09:13:58;;;;;;;24.20;7.55;;;;;;;;;;6114567;23;20476;-77
2022/11/07 09:16:24;;;;;;;17.73;7.78;;;;;;;;;;6133645;22;20008;-77
2022/11/07 09:18:50;;;;;;;16.63;7.57;;;;;;;;;;6238269;23;20022;-78
2022/11/07 09:21:16;;;;;;;22.17;8.27;;;;;;;;;;6236976;23;20447;-80
2022/11/07 09:23:41;;;;;;;18.05;8.30;;;;;;;;;;6237605;23;20000;-78
2022/11/07 09:26:33;;;;;;;20.75;7.95;;;;;;;;;;6238160;23;20428;-78
2022/11/07 09:29:01;;;;;;;23.15;7.88;;;;;;;;;;6210909;23;20012;-81
2022/11/07 09:31:52;;;;;;;20.58;8.13;;;;;;;;;;6265098;22;20038;-79
2022/11/07 09:34:18;;;;;;;24.17;8.52;;;;;;;;;;6241406;23;20048;-77
2022/11/07 09:36:44;;;;;;;21.83;8.55;;;;;;;;;;6240867;23;20367;-79
2022/11/07 09:39:09;;;;;;;19.83;8.05;;;;;;;;;;6240157;23;20009;-78
2022/11/07 09:42:05;;;;;;;22.00;8.50;;;;;;;;;;6238101;22;20034;-79
2022/11/07 09:44:56;;;;;;;22.92;8.60;;;;;;;;;;6238197;23;20327;-77
2022/11/07 09:47:40;;;;;;;24.45;8.93;;;;;;;;;;6238049;23;20004;-80
2022/11/07 09:50:14;;;;;;;20.23;8.88;;;;;;;;;;6233832;23;20008;-76
2022/11/07 09:52:48;;;;;;;24.63;8.60;;;;;;;;;;6238008;22;20000;-77
2022/11/07 09:55:27;;;;;;;29.08;8.93;;;;;;;;;;6216034;23;20023;-77
2022/11/07 09:57:54;;;;;;;21.45;9.95;;;;;;;;;;6238004;23;20007;-76
2022/11/07 10:00:21;;;;;;;21.02;9.85;;;;;;;;;;6207451;23;20023;-78
2022/11/07 10:02:53;;;;;;;24.83;10.13;;;;;;;;;;6237119;23;19996;-78
2022/11/07 10:05:42;;;;;;;28.95;11.45;;;;;;;;;;6236929;23;20062;-78
2022/11/07 10:08:34;;;;;;;23.45;10.95;;;;;;;;;;6235906;22;20006;-77
2022/11/07 10:11:02;;;;;;;23.60;10.32;;;;;;;;;;6210190;23;20011;-79
2022/11/07 10:13:53;;;;;;;23.73;10.88;;;;;;;;;;6234285;23;20054;-76
2022/11/07 10:17:00;;;;;;;26.92;11.10;;;;;;;;;;6187546;23;20119;-76
2022/11/07 10:32:28;;;;;;;29.05;10.80;;;;;;;;;;6121583;22;20460;-76
2022/11/07 10:35:26;;;;;;;29.85;10.98;;;;;;;;;;6217735;22;20090;-76
2022/11/07 10:38:25;;;;;;;27.77;10.55;;;;;;;;;;6227792;22;20015;-79
2022/11/07 10:40:53;;;;;;;28.95;10.02;;;;;;;;;;6224049;22;20023;-77
2022/11/07 10:43:33;;;;;;;30.23;11.35;;;;;;;;;;6253706;22;20204;-79
2022/11/07 10:46:15;;;;;;;29.03;11.07;;;;;;;;;;6216233;22;20314;-78
2022/11/07 10:48:58;;;;;;;21.98;10.60;;;;;;;;;;6217700;22;20079;-77
2022/11/07 10:51:34;;;;;;;23.33;10.20;;;;;;;;;;6239835;22;20015;-77
2022/11/07 10:53:59;;;;;;;21.88;10.30;;;;;;;;;;6238641;22;20748;-77
2022/11/07 10:56:29;;;;;;;23.17;9.57;;;;;;;;;;6265872;22;19999;-76
2022/11/07 10:58:55;;;;;;;21.10;9.55;;;;;;;;;;6264182;22;20015;-76
2022/11/07 11:01:24;;;;;;;25.50;9.60;;;;;;;;;;6239738;22;20004;-78
2022/11/07 11:03:50;;;;;;;32.00;9.95;;;;;;;;;;6191646;22;20383;-77
2022/11/07 11:06:27;;;;;;;25.33;10.02;;;;;;;;;;6239647;22;20018;-76
2022/11/07 11:08:53;;;;;;;22.20;10.05;;;;;;;;;;6216181;22;20007;-77
2022/11/07 11:11:38;;;;;;;23.00;9.95;;;;;;;;;;6216837;22;20003;-76
2022/11/07 11:17:06;;;;;;;24.98;9.82;;;;;;;;;;6238733;22;20043;-79
2022/11/07 11:19:47;;;;;;;29.30;9.85;;;;;;;;;;6186143;23;20454;-77
2022/11/07 11:22:17;;;;;;;21.92;9.70;;;;;;;;;;6213858;23;20347;-77
2022/11/07 11:24:42;;;;;;;25.63;9.60;;;;;;;;;;6215179;23;20004;-78
2022/11/07 11:27:23;;;;;;;25.92;8.90;;;;;;;;;;6214762;23;20415;-80
2022/11/07 11:30:06;;;;;;;35.97;9.25;;;;;;;;;;6215584;23;20328;-77
2022/11/07 11:32:50;;;;;;;28.55;9.00;;;;;;;;;;6243042;23;20020;-77
2022/11/07 11:35:22;;;;;;;19.20;8.85;;;;;;;;;;6239983;23;20009;-80
2022/11/07 11:38:08;;;;;;;25.65;8.80;;;;;;;;;;6235322;22;20004;-80
2022/11/07 11:40:36;;;;;;;24.80;9.10;;;;;;;;;;6240026;23;20475;-79
2022/11/07 11:43:20;;;;;;;30.33;8.88;;;;;;;;;;6208389;23;20015;-77
2022/11/07 11:46:12;;;;;;;20.65;8.68;;;;;;;;;;6187336;23;20099;-78
2022/11/07 11:48:59;;;;;;;21.13;8.40;;;;;;;;;;6236521;22;20028;-79
2022/11/07 11:51:43;;;;;;;26.42;8.27;;;;;;;;;;6185895;23;20004;-78
2022/11/07 11:54:10;;;;;;;23.45;8.35;;;;;;;;;;6234492;23;20066;-80
2022/11/07 11:57:02;;;;;;;21.90;8.30;;;;;;;;;;6236480;22;20015;-78
2022/11/07 12:02:40;;;;;;;23.40;8.27;;;;;;;;;;6234531;22;20110;-77
2022/11/07 12:05:42;;;;;;;28.58;8.65;;;;;;;;;;6207989;23;20236;-77
2022/11/07 12:08:32;;;;;;;24.45;8.20;;;;;;;;;;6183203;23;20009;-78
2022/11/07 12:11:00;;;;;;;24.42;8.63;;;;;;;;;;6211256;23;20000;-76
2022/11/07 12:13:49;;;;;;;23.83;8.35;;;;;;;;;;6211132;23;20412;-76
2022/11/07 12:16:30;;;;;;;19.05;8.13;;;;;;;;;;6210562;23;20427;-75
2022/11/07 12:19:18;;;;;;;20.13;8.38;;;;;;;;;;6213530;23;20001;-79
2022/11/07 12:22:19;;;;;;;22.73;8.43;;;;;;;;;;6183645;23;20005;-78
2022/11/07 12:25:08;;;;;;;22.77;8.60;;;;;;;;;;6183358;23;20015;-78
2022/11/07 12:28:02;;;;;;;28.35;9.48;;;;;;;;;;6184067;23;20024;-78
2022/11/07 12:30:44;;;;;;;20.40;8.75;;;;;;;;;;6207988;23;20008;-80
2022/11/07 12:33:25;;;;;;;26.27;9.77;;;;;;;;;;6160987;23;20001;-77
2022/11/07 12:36:01;;;;;;;20.60;9.48;;;;;;;;;;6205514;23;20007;-79
2022/11/07 12:38:32;;;;;;;28.73;9.70;;;;;;;;;;6181802;23;20009;-79
2022/11/07 12:41:11;;;;;;;21.92;9.52;;;;;;;;;;6181393;23;20032;-79
2022/11/07 12:43:52;;;;;;;21.60;10.10;;;;;;;;;;6182714;23;20415;-78
2022/11/07 12:46:25;;;;;;;22.25;9.90;;;;;;;;;;6184155;23;20657;-79
2022/11/07 12:48:53;;;;;;;24.77;10.57;;;;;;;;;;6185154;23;20224;-78
2022/11/07 12:51:37;;;;;;;27.63;10.82;;;;;;;;;;6211031;23;20481;-78
2022/11/07 12:54:21;;;;;;;25.85;10.85;;;;;;;;;;6211323;23;20001;-80
2022/11/07 12:56:47;;;;;;;26.10;10.73;;;;;;;;;;6211518;23;20012;-78
2022/11/07 12:59:21;;;;;;;27.90;10.18;;;;;;;;;;6161154;23;20009;-79
2022/11/07 13:02:11;;;;;;;25.20;10.27;;;;;;;;;;6186935;23;20062;-79
2022/11/07 13:04:42;;;;;;;25.98;10.48;;;;;;;;;;6173298;23;20103;-78
2022/11/07 13:07:45;;;;;;;24.65;10.75;;;;;;;;;;6245790;23;20004;-78
2022/11/07 13:10:34;;;;;;;28.95;10.60;;;;;;;;;;6218831;23;20102;-78
2022/11/07 13:13:10;;;;;;;23.50;10.27;;;;;;;;;;6193389;23;20502;-79
2022/11/07 13:15:36;;;;;;;21.05;10.15;;;;;;;;;;6216890;23;20004;-79
2022/11/07 13:18:01;;;;;;;31.98;10.23;;;;;;;;;;6216844;23;20000;-78
2022/11/07 13:20:28;;;;;;;23.83;9.90;;;;;;;;;;6217200;23;20024;-80
2022/11/07 13:22:59;;;;;;;26.23;10.70;;;;;;;;;;6218700;23;19996;-79
2022/11/07 13:25:29;;;;;;;29.83;10.68;;;;;;;;;;6193220;23;20000;-79
2022/11/07 13:27:55;;;;;;;21.92;10.27;;;;;;;;;;6193967;23;20058;-79
2022/11/07 13:30:21;;;;;;;26.83;10.95;;;;;;;;;;6245728;23;20000;-78
2022/11/07 13:32:48;;;;;;;24.60;10.85;;;;;;;;;;6220128;23;20178;-78
2022/11/07 13:35:33;;;;;;;23.83;10.57;;;;;;;;;;6220987;23;20004;-77
2022/11/07 13:38:19;;;;;;;24.08;11.40;;;;;;;;;;6218841;23;20000;-78
2022/11/07 13:41:00;;;;;;;25.38;11.27;;;;;;;;;;6244687;23;20004;-77
2022/11/07 13:43:28;;;;;;;31.90;12.50;;;;;;;;;;6169916;23;20000;-80
2022/11/07 13:45:58;;;;;;;29.30;11.82;;;;;;;;;;6218775;23;20004;-78
2022/11/07 13:48:41;;;;;;;24.27;11.25;;;;;;;;;;6194094;23;20098;-77
2022/11/07 13:51:20;;;;;;;27.95;10.90;;;;;;;;;;6220195;23;20284;-78
2022/11/07 13:54:11;;;;;;;21.95;10.20;;;;;;;;;;6194737;23;20442;-76
2022/11/07 13:56:43;;;;;;;26.70;10.80;;;;;;;;;;6217323;23;20000;-79
2022/11/07 13:59:29;;;;;;;23.88;10.20;;;;;;;;;;6244988;23;20345;-78
2022/11/07 14:01:55;;;;;;;24.70;9.75;;;;;;;;;;6223618;23;20008;-78
2022/11/07 14:04:21;;;;;;;21.23;10.23;;;;;;;;;;6220156;23;20071;-78
2022/11/07 14:06:47;;;;;;;23.13;10.13;;;;;;;;;;6163402;23;20011;-78
2022/11/07 14:09:14;;;;;;;23.60;10.40;;;;;;;;;;6214429;23;20008;-78
2022/11/07 14:11:40;;;;;;;20.20;10.10;;;;;;;;;;6188228;23;20445;-80
2022/11/07 14:14:05;;;;;;;28.67;10.63;;;;;;;;;;6214768;23;20005;-79
2022/11/07 14:16:31;;;;;;;20.88;10.20;;;;;;;;;;6188947;23;19997;-79
2022/11/07 14:19:01;;;;;;;26.00;10.95;;;;;;;;;;6163762;23;20020;-80
2022/11/07 14:21:27;;;;;;;;;;;;;;;;;;6188590;23;20001;-80
2022/11/07 14:23:53;;;;;;;27.98;10.73;;;;;;;;;;6214283;23;20269;-79
2022/11/07 14:26:24;;;;;;;22.63;10.80;;;;;;;;;;6214625;23;20036;-79
2022/11/07 14:28:50;;;;;;;21.73;10.52;;;;;;;;;;6214630;23;20063;-78
2022/11/07 14:31:25;;;;;;;26.42;10.65;;;;;;;;;;6187928;23;20044;-79
2022/11/07 14:33:54;;;;;;;25.38;10.32;;;;;;;;;;6214659;23;20008;-79
2022/11/07 14:36:20;;;;;;;24.77;11.15;;;;;;;;;;6214013;23;19997;-78
2022/11/07 14:38:51;;;;;;;22.98;10.65;;;;;;;;;;6187836;23;20015;-79
2022/11/07 14:41:16;;;;;;;29.63;10.85;;;;;;;;;;6163426;23;20000;-79
2022/11/07 14:43:42;;;;;;;22.95;10.63;;;;;;;;;;6188005;23;20005;-78
2022/11/07 14:46:07;;;;;;;19.92;10.63;;;;;;;;;;6162886;23;20000;-78
2022/11/07 14:48:34;;;;;;;27.13;10.50;;;;;;;;;;6186463;23;20008;-79
2022/11/07 14:50:59;;;;;;;27.90;11.07;;;;;;;;;;6214006;23;20000;-79
2022/11/07 14:53:49;;;;;;;24.33;11.25;;;;;;;;;;6214446;23;20115;-79
2022/11/07 14:56:14;;;;;;;34.47;13.82;;;;;;;;;;6190675;23;20382;-78
2022/11/07 14:58:40;;;;;;;24.90;14.07;;;;;;;;;;6187927;23;20001;-78
2022/11/07 15:01:06;;;;;;;23.90;12.02;;;;;;;;;;6187942;23;20009;-81
2022/11/07 15:03:33;;;;;;;27.17;12.05;;;;;;;;;;6213794;23;20008;-81
2022/11/07 15:05:59;;;;;;;27.58;13.02;;;;;;;;;;6213923;23;20482;-80
2022/11/07 15:08:32;;;;;;;27.60;12.73;;;;;;;;;;6187231;23;20013;-80
2022/11/07 15:11:00;;;;;;;29.23;13.25;;;;;;;;;;6214062;23;20063;-80
2022/11/07 15:13:26;;;;;;;39.60;14.15;;;;;;;;;;6214111;23;20011;-79
2022/11/07 15:16:02;;;;;;;32.03;15.27;;;;;;;;;;6187650;23;20044;-80
2022/11/07 15:18:27;;;;;;;25.80;13.65;;;;;;;;;;6187445;23;20055;-80